createdAt,value
2018-10-01T00:00:15.276Z,39.53
2018-10-01T00:00:53.844Z,40.45
2018-10-01T00:01:32.189Z,40.55
2018-10-01T00:02:10.486Z,38.23
2018-10-01T00:02:48.726Z,37.42
2018-10-01T00:03:28.983Z,40.08
2018-10-01T00:04:07.635Z,37.80
2018-10-01T00:04:46.384Z,40.07
2018-10-01T00:05:26.100Z,38.63
2018-10-01T00:06:04.713Z,38.40
2018-10-01T00:06:43.248Z,41.50
2018-10-01T00:07:22.077Z,39.70
2018-10-01T00:08:00.584Z,39.35
2018-10-01T00:08:39.280Z,40.77
2018-10-01T00:09:17.900Z,39.05
2018-10-01T00:09:56.524Z,39.08
2018-10-01T00:10:35.248Z,38.38
2018-10-01T00:11:15.586Z,37.95
2018-10-01T00:11:54.126Z,38.10
2018-10-01T00:12:33.459Z,40.38
2018-10-01T00:13:12.088Z,39.60
2018-10-01T00:13:55.801Z,39.75
2018-10-01T00:14:34.621Z,39.05
2018-10-01T00:15:13.336Z,38.65
2018-10-01T00:15:52.110Z,40.08
2018-10-01T00:16:30.686Z,38.83
2018-10-01T00:17:09.413Z,39.48
2018-10-01T00:17:48.232Z,39.60
2018-10-01T00:18:26.628Z,42.48
2018-10-01T00:19:05.701Z,39.05
2018-10-01T00:19:48.472Z,39.23
2018-10-01T00:20:31.367Z,39.45
2018-10-01T00:21:14.391Z,38.50
2018-10-01T00:21:58.366Z,37.88
2018-10-01T00:22:41.212Z,39.10
2018-10-01T00:23:20.029Z,41.42
2018-10-01T00:23:58.837Z,39.20
2018-10-01T00:24:37.647Z,38.63
2018-10-01T00:25:16.460Z,43.50
2018-10-01T00:25:55.369Z,37.15
2018-10-01T00:26:33.616Z,38.42
2018-10-01T00:27:13.262Z,38.28
2018-10-01T00:27:52.780Z,40.83
2018-10-01T00:28:31.369Z,39.40
2018-10-01T00:29:10.316Z,38.63
2018-10-01T00:29:49.736Z,40.12
2018-10-01T00:30:29.129Z,38.92
2018-10-01T00:31:07.754Z,40.92
2018-10-01T00:31:46.611Z,40.10
2018-10-01T00:32:25.095Z,38.65
2018-10-01T00:33:03.919Z,39.58
2018-10-01T00:33:43.689Z,38.80
2018-10-01T00:34:22.459Z,40.67
2018-10-01T00:35:01.068Z,38.55
2018-10-01T00:35:40.084Z,38.42
2018-10-01T00:36:19.809Z,41.05
2018-10-01T00:36:58.512Z,41.30
2018-10-01T00:37:37.332Z,39.10
2018-10-01T00:38:17.079Z,40.08
2018-10-01T00:38:56.036Z,40.73
2018-10-01T00:39:34.772Z,38.65
2018-10-01T00:40:13.507Z,37.58
2018-10-01T00:40:52.503Z,37.30
2018-10-01T00:41:31.311Z,38.40
2018-10-01T00:42:11.025Z,39.65
2018-10-01T00:42:49.661Z,37.93
2018-10-01T00:43:28.350Z,41.28
2018-10-01T00:44:06.915Z,39.30
2018-10-01T00:44:45.538Z,40.57
2018-10-01T00:45:24.143Z,36.75
2018-10-01T00:46:02.915Z,39.50
2018-10-01T00:46:42.845Z,39.33
2018-10-01T00:47:38.780Z,38.73
2018-10-01T00:48:17.511Z,39.55
2018-10-01T00:48:56.691Z,39.73
2018-10-01T00:49:36.455Z,40.05
2018-10-01T00:50:14.861Z,39.08
2018-10-01T00:50:53.238Z,39.20
2018-10-01T00:51:31.592Z,38.95
2018-10-01T00:52:10.504Z,38.65
2018-10-01T00:52:49.137Z,36.93
2018-10-01T00:53:27.112Z,39.33
2018-10-01T00:54:05.243Z,38.50
2018-10-01T00:54:43.394Z,39.17
2018-10-01T00:55:21.346Z,39.27
2018-10-01T00:55:59.486Z,39.88
2018-10-01T00:56:37.635Z,40.48
2018-10-01T00:57:15.531Z,37.93
2018-10-01T00:57:53.718Z,37.83
2018-10-01T00:58:31.724Z,37.73
2018-10-01T00:59:09.847Z,38.45
2018-10-01T00:59:48.155Z,39.63
2018-10-01T01:00:26.191Z,41.50
2018-10-01T01:01:04.035Z,38.50
2018-10-01T01:01:42.435Z,39.33
2018-10-01T01:02:20.736Z,39.20
2018-10-01T01:02:59.023Z,38.98
2018-10-01T01:03:37.089Z,40.83
2018-10-01T01:04:15.269Z,41.23
2018-10-01T01:04:53.297Z,39.05
2018-10-01T01:05:31.712Z,38.70
2018-10-01T01:06:09.759Z,39.70
2018-10-01T01:06:47.906Z,37.98
2018-10-01T01:07:25.801Z,39.00
2018-10-01T01:08:05.780Z,39.55
2018-10-01T01:08:44.119Z,37.45
2018-10-01T01:09:22.193Z,39.45
2018-10-01T01:10:00.137Z,37.33
2018-10-01T01:10:38.797Z,38.13
2018-10-01T01:11:16.954Z,39.30
2018-10-01T01:11:54.874Z,40.30
2018-10-01T01:12:32.723Z,37.25
2018-10-01T01:13:10.749Z,39.03
2018-10-01T01:13:50.281Z,39.27
2018-10-01T01:14:28.401Z,37.93
2018-10-01T01:15:06.441Z,39.65
2018-10-01T01:15:44.470Z,40.15
2018-10-01T01:16:22.853Z,37.90
2018-10-01T01:17:00.710Z,42.27
2018-10-01T01:17:38.508Z,38.67
2018-10-01T01:18:17.056Z,39.58
2018-10-01T01:18:56.213Z,38.20
2018-10-01T01:19:34.247Z,40.80
2018-10-01T01:20:12.318Z,39.00
2018-10-01T01:20:50.273Z,39.58
2018-10-01T01:21:29.438Z,38.65
2018-10-01T01:22:07.424Z,39.10
2018-10-01T01:22:45.358Z,40.15
2018-10-01T01:23:23.336Z,40.23
2018-10-01T01:24:01.206Z,40.33
2018-10-01T01:24:40.069Z,38.83
2018-10-01T01:25:18.077Z,39.20
2018-10-01T01:25:56.032Z,40.83
2018-10-01T01:26:33.861Z,37.80
2018-10-01T01:27:11.731Z,39.60
2018-10-01T01:29:14.342Z,39.75
2018-10-01T01:29:53.613Z,38.70
2018-10-01T01:30:31.566Z,45.48
2018-10-01T01:31:10.689Z,40.45
2018-10-01T01:31:48.806Z,40.78
2018-10-01T01:32:26.901Z,41.77
2018-10-01T01:33:04.947Z,38.95
2018-10-01T01:33:42.887Z,40.12
2018-10-01T01:34:21.755Z,43.25
2018-10-01T01:34:59.580Z,40.43
2018-10-01T01:35:37.675Z,40.38
2018-10-01T01:36:16.640Z,41.73
2018-10-01T01:36:54.924Z,39.38
2018-10-01T01:37:33.016Z,38.33
2018-10-01T01:38:11.121Z,41.77
2018-10-01T01:38:49.251Z,40.23
2018-10-01T01:39:27.297Z,39.55
2018-10-01T01:40:05.500Z,38.80
2018-10-01T01:40:43.564Z,38.75
2018-10-01T01:41:21.572Z,37.63
2018-10-01T01:41:59.372Z,40.83
2018-10-01T01:42:38.189Z,40.77
2018-10-01T01:43:16.046Z,40.58
2018-10-01T01:43:54.629Z,41.13
2018-10-01T01:45:43.236Z,41.77
2018-10-01T01:46:21.270Z,43.23
2018-10-01T01:46:59.220Z,41.90
2018-10-01T01:47:37.203Z,39.35
2018-10-01T01:48:15.453Z,40.12
2018-10-01T01:48:53.548Z,41.08
2018-10-01T01:49:31.561Z,42.13
2018-10-01T01:50:09.972Z,39.27
2018-10-01T01:50:48.110Z,39.38
2018-10-01T01:51:27.437Z,39.40
2018-10-01T01:52:05.401Z,40.85
2018-10-01T01:52:43.384Z,38.90
2018-10-01T01:53:24.420Z,41.13
2018-10-01T01:54:02.329Z,39.23
2018-10-01T01:54:40.219Z,39.77
2018-10-01T01:55:19.212Z,40.98
2018-10-01T01:55:58.227Z,39.03
2018-10-01T01:56:36.053Z,41.00
2018-10-01T01:57:13.917Z,40.70
2018-10-01T01:57:51.863Z,39.83
2018-10-01T01:58:30.605Z,38.48
2018-10-01T01:59:08.506Z,40.23
2018-10-01T01:59:46.960Z,40.78
2018-10-01T02:00:24.948Z,39.63
2018-10-01T02:01:03.645Z,41.05
2018-10-01T02:01:42.807Z,38.65
2018-10-01T02:02:20.825Z,40.00
2018-10-01T02:02:58.665Z,43.10
2018-10-01T02:03:36.534Z,41.40
2018-10-01T02:04:14.657Z,43.30
2018-10-01T02:04:52.639Z,39.45
2018-10-01T02:05:30.570Z,41.80
2018-10-01T02:06:08.577Z,40.30
2018-10-01T02:06:46.847Z,41.05
2018-10-01T02:07:24.782Z,43.63
2018-10-01T02:08:02.760Z,39.50
2018-10-01T02:08:41.851Z,40.03
2018-10-01T02:09:21.424Z,40.03
2018-10-01T02:09:59.326Z,41.15
2018-10-01T02:10:38.291Z,42.30
2018-10-01T02:11:16.793Z,40.98
2018-10-01T02:11:54.873Z,45.63
2018-10-01T02:12:32.720Z,45.25
2018-10-01T02:13:10.616Z,42.95
2018-10-01T02:13:48.729Z,43.85
2018-10-01T02:14:26.631Z,44.25
2018-10-01T02:15:04.641Z,47.98
2018-10-01T02:15:42.449Z,42.95
2018-10-01T02:16:20.421Z,40.63
2018-10-01T02:16:58.344Z,42.10
2018-10-01T02:17:36.297Z,48.85
2018-10-01T02:18:15.157Z,40.85
2018-10-01T02:18:53.189Z,48.68
2018-10-01T02:19:31.136Z,42.98
2018-10-01T02:20:10.078Z,40.28
2018-10-01T02:20:48.081Z,42.23
2018-10-01T02:21:26.103Z,45.12
2018-10-01T02:22:04.178Z,45.88
2018-10-01T02:22:42.148Z,42.40
2018-10-01T02:23:20.141Z,41.28
2018-10-01T02:23:58.369Z,41.92
2018-10-01T02:24:36.212Z,42.33
2018-10-01T02:25:14.442Z,43.15
2018-10-01T02:25:52.518Z,44.60
2018-10-01T02:26:30.565Z,43.45
2018-10-01T02:27:08.718Z,44.38
2018-10-01T02:27:46.704Z,42.43
2018-10-01T02:28:25.320Z,44.88
2018-10-01T02:29:03.517Z,45.03
2018-10-01T02:29:41.429Z,47.25
2018-10-01T02:30:20.704Z,45.67
2018-10-01T02:30:58.620Z,43.50
2018-10-01T02:31:36.672Z,43.85
2018-10-01T02:32:14.743Z,42.48
2018-10-01T02:32:52.955Z,46.28
2018-10-01T02:33:30.893Z,41.83
2018-10-01T02:34:08.954Z,42.90
2018-10-01T02:34:47.124Z,42.85
2018-10-01T02:35:26.145Z,45.48
2018-10-01T02:36:04.242Z,43.65
2018-10-01T02:36:44.006Z,43.10
2018-10-01T02:37:22.378Z,45.08
2018-10-01T02:38:00.308Z,47.62
2018-10-01T02:38:38.206Z,47.17
2018-10-01T02:39:17.364Z,44.00
2018-10-01T02:39:55.299Z,44.93
2018-10-01T02:40:34.987Z,44.98
2018-10-01T02:41:13.207Z,46.05
2018-10-01T02:41:51.414Z,45.38
2018-10-01T02:42:30.030Z,46.02
2018-10-01T02:43:09.336Z,46.98
2018-10-01T02:43:47.523Z,45.25
2018-10-01T02:44:25.479Z,43.80
2018-10-01T02:45:03.588Z,51.77
2018-10-01T02:45:41.818Z,45.20
2018-10-01T02:46:20.306Z,46.25
2018-10-01T02:46:58.297Z,48.85
2018-10-01T02:47:36.406Z,47.95
2018-10-01T02:48:14.555Z,48.10
2018-10-01T02:48:52.569Z,47.60
2018-10-01T02:49:30.977Z,50.65
2018-10-01T02:50:09.031Z,49.33
2018-10-01T02:50:47.505Z,49.13
2018-10-01T02:51:26.344Z,46.48
2018-10-01T02:52:09.087Z,50.15
2018-10-01T02:52:52.172Z,44.88
2018-10-01T02:53:34.797Z,47.65
2018-10-01T02:54:17.415Z,52.70
2018-10-01T02:54:55.667Z,51.08
2018-10-01T02:55:34.751Z,47.50
2018-10-01T02:56:13.137Z,46.60
2018-10-01T02:56:51.184Z,48.30
2018-10-01T02:57:29.593Z,53.08
2018-10-01T02:58:07.890Z,51.05
2018-10-01T02:58:46.114Z,51.43
2018-10-01T02:59:24.209Z,49.00
2018-10-01T03:00:02.244Z,52.15
2018-10-01T03:00:40.550Z,51.85
2018-10-01T03:01:18.883Z,45.15
2018-10-01T03:01:57.074Z,50.73
2018-10-01T03:02:35.105Z,47.62
2018-10-01T03:03:14.212Z,48.05
2018-10-01T03:03:52.008Z,49.23
2018-10-01T03:04:30.486Z,49.63
2018-10-01T03:05:08.436Z,50.20
2018-10-01T03:05:46.277Z,48.23
2018-10-01T03:06:24.191Z,49.42
2018-10-01T03:07:01.962Z,50.55
2018-10-01T03:07:39.921Z,49.33
2018-10-01T03:08:17.881Z,46.50
2018-10-01T03:08:55.976Z,50.00
2018-10-01T03:09:35.237Z,47.95
2018-10-01T03:10:14.181Z,49.85
2018-10-01T03:10:52.011Z,50.55
2018-10-01T03:11:29.965Z,53.13
2018-10-01T03:12:08.982Z,51.20
2018-10-01T03:12:47.910Z,49.20
2018-10-01T03:13:25.899Z,48.17
2018-10-01T03:14:03.846Z,46.65
2018-10-01T03:14:41.772Z,48.93
2018-10-01T03:15:19.652Z,48.20
2018-10-01T03:15:57.844Z,49.95
2018-10-01T03:16:35.661Z,47.33
2018-10-01T03:17:13.564Z,47.10
2018-10-01T03:17:51.501Z,49.35
2018-10-01T03:18:29.358Z,49.60
2018-10-01T03:19:07.774Z,48.68
2018-10-01T03:19:45.800Z,50.55
2018-10-01T03:20:23.947Z,49.65
2018-10-01T03:21:02.097Z,54.42
2018-10-01T03:21:40.784Z,49.50
2018-10-01T03:22:18.701Z,51.83
2018-10-01T03:22:56.589Z,49.67
2018-10-01T03:23:35.914Z,49.10
2018-10-01T03:24:13.814Z,50.57
2018-10-01T03:24:51.779Z,53.65
2018-10-01T03:25:29.776Z,52.17
2018-10-01T03:26:07.665Z,52.13
2018-10-01T03:26:45.730Z,50.27
2018-10-01T03:27:23.840Z,56.28
2018-10-01T03:28:01.776Z,54.88
2018-10-01T03:28:39.728Z,47.80
2018-10-01T03:29:17.792Z,52.10
2018-10-01T03:29:55.627Z,52.37
2018-10-01T03:30:33.601Z,53.03
2018-10-01T03:31:11.380Z,53.52
2018-10-01T03:31:49.263Z,53.38
2018-10-01T03:32:27.196Z,52.17
2018-10-01T03:33:05.372Z,53.30
2018-10-01T03:33:43.328Z,54.03
2018-10-01T03:34:21.202Z,49.50
2018-10-01T03:34:59.084Z,50.10
2018-10-01T03:35:37.060Z,52.73
2018-10-01T03:36:15.820Z,50.67
2018-10-01T03:36:53.849Z,49.08
2018-10-01T03:37:31.761Z,50.43
2018-10-01T03:38:09.576Z,52.53
2018-10-01T03:38:47.656Z,50.75
2018-10-01T03:39:25.471Z,49.23
2018-10-01T03:40:03.501Z,51.83
2018-10-01T03:40:41.940Z,54.13
2018-10-01T03:41:19.893Z,49.30
2018-10-01T03:41:57.783Z,49.13
2018-10-01T03:42:35.650Z,53.30
2018-10-01T03:43:13.457Z,54.63
2018-10-01T03:43:51.540Z,50.55
2018-10-01T03:44:30.049Z,53.28
2018-10-01T03:45:09.654Z,49.77
2018-10-01T03:45:47.961Z,51.45
2018-10-01T03:46:27.564Z,51.70
2018-10-01T03:47:05.802Z,52.57
2018-10-01T03:47:43.795Z,54.00
2018-10-01T03:48:22.666Z,48.47
2018-10-01T03:49:00.651Z,48.53
2018-10-01T03:49:39.617Z,52.78
2018-10-01T03:50:17.664Z,50.73
2018-10-01T03:50:55.784Z,54.90
2018-10-01T03:51:33.787Z,51.60
2018-10-01T03:52:11.966Z,53.33
2018-10-01T03:52:49.916Z,51.80
2018-10-01T03:53:28.895Z,50.80
2018-10-01T03:54:06.820Z,51.53
2018-10-01T03:54:44.875Z,52.47
2018-10-01T03:55:22.822Z,52.17
2018-10-01T03:56:00.688Z,54.75
2018-10-01T03:56:38.769Z,58.33
2018-10-01T03:57:16.620Z,53.43
2018-10-01T03:57:55.433Z,55.43
2018-10-01T03:58:34.450Z,51.07
2018-10-01T03:59:12.371Z,55.25
2018-10-01T03:59:50.207Z,54.80
2018-10-01T04:00:28.031Z,55.28
2018-10-01T04:01:06.063Z,50.93
2018-10-01T04:01:44.003Z,50.00
2018-10-01T04:02:21.913Z,51.87
2018-10-01T04:03:02.683Z,49.33
2018-10-01T04:03:42.087Z,52.50
2018-10-01T04:04:20.047Z,58.57
2018-10-01T04:04:57.970Z,51.90
2018-10-01T04:05:36.261Z,54.13
2018-10-01T04:06:14.252Z,51.50
2018-10-01T04:06:52.220Z,48.50
2018-10-01T04:07:30.208Z,52.27
2018-10-01T04:08:08.145Z,52.15
2018-10-01T04:08:46.573Z,49.73
2018-10-01T04:09:24.729Z,46.90
2018-10-01T04:10:03.168Z,51.25
2018-10-01T04:10:42.932Z,52.67
2018-10-01T04:11:21.040Z,49.77
2018-10-01T04:11:59.012Z,52.03
2018-10-01T04:12:36.970Z,52.43
2018-10-01T04:13:14.964Z,48.60
2018-10-01T04:13:52.997Z,54.13
2018-10-01T04:14:30.919Z,50.83
2018-10-01T04:15:08.989Z,53.52
2018-10-01T04:15:46.992Z,50.00
2018-10-01T04:16:24.966Z,50.63
2018-10-01T04:17:02.815Z,49.93
2018-10-01T04:17:41.550Z,51.73
2018-10-01T04:18:19.460Z,50.75
2018-10-01T04:18:57.432Z,48.57
2018-10-01T04:19:35.315Z,50.70
2018-10-01T04:20:13.238Z,49.77
2018-10-01T04:20:52.606Z,49.23
2018-10-01T04:21:30.836Z,53.33
2018-10-01T04:22:08.784Z,50.10
2018-10-01T04:22:46.751Z,47.97
2018-10-01T04:23:25.034Z,49.80
2018-10-01T04:24:03.079Z,50.83
2018-10-01T04:24:41.071Z,50.78
2018-10-01T04:25:19.025Z,52.48
2018-10-01T04:25:57.039Z,49.65
2018-10-01T04:26:35.132Z,48.25
2018-10-01T04:27:13.104Z,51.02
2018-10-01T04:27:51.067Z,48.80
2018-10-01T04:28:31.789Z,49.53
2018-10-01T04:29:09.983Z,49.88
2018-10-01T04:29:48.066Z,48.05
2018-10-01T04:30:26.250Z,49.37
2018-10-01T04:31:04.392Z,47.13
2018-10-01T04:31:42.292Z,51.87
2018-10-01T04:32:20.166Z,48.87
2018-10-01T04:32:58.029Z,51.23
2018-10-01T04:33:36.045Z,47.53
2018-10-01T04:34:13.922Z,49.55
2018-10-01T04:34:51.916Z,53.20
2018-10-01T04:35:29.722Z,50.27
2018-10-01T04:36:07.551Z,50.08
2018-10-01T04:36:46.212Z,48.60
2018-10-01T04:37:24.064Z,47.35
2018-10-01T04:38:02.020Z,50.77
2018-10-01T04:38:40.473Z,47.13
2018-10-01T04:39:18.709Z,49.00
2018-10-01T04:39:56.663Z,49.87
2018-10-01T04:40:34.697Z,49.23
2018-10-01T04:41:12.702Z,50.20
2018-10-01T04:41:51.474Z,46.60
2018-10-01T04:42:29.528Z,48.77
2018-10-01T04:43:07.633Z,49.90
2018-10-01T04:43:46.597Z,48.05
2018-10-01T04:44:24.538Z,47.95
2018-10-01T04:45:02.616Z,50.37
2018-10-01T04:45:40.632Z,47.88
2018-10-01T04:46:18.650Z,47.90
2018-10-01T04:46:56.523Z,49.38
2018-10-01T04:47:34.310Z,49.00
2018-10-01T04:48:12.187Z,48.60
2018-10-01T04:48:50.042Z,47.57
2018-10-01T04:49:28.050Z,48.38
2018-10-01T04:50:06.022Z,48.30
2018-10-01T04:50:43.995Z,47.73
2018-10-01T04:51:21.946Z,48.73
2018-10-01T04:51:59.816Z,49.30
2018-10-01T04:52:38.215Z,48.50
2018-10-01T04:53:16.172Z,45.77
2018-10-01T04:53:54.290Z,47.27
2018-10-01T04:54:32.327Z,48.40
2018-10-01T04:55:10.308Z,48.07
2018-10-01T04:55:48.783Z,49.47
2018-10-01T04:56:28.202Z,50.63
2018-10-01T04:57:06.094Z,51.97
2018-10-01T04:57:43.920Z,50.70
2018-10-01T04:58:21.920Z,50.13
2018-10-01T04:58:59.912Z,46.83
2018-10-01T04:59:38.000Z,48.83
2018-10-01T05:03:17.032Z,48.17
2018-10-01T05:03:55.058Z,48.93
2018-10-01T05:04:33.134Z,49.97
2018-10-01T05:05:11.441Z,49.90
2018-10-01T05:05:49.532Z,48.37
2018-10-01T05:06:27.840Z,49.90
2018-10-01T05:07:05.691Z,48.38
2018-10-01T05:07:44.861Z,47.67
2018-10-01T05:08:22.844Z,47.63
2018-10-01T05:09:01.116Z,48.50
2018-10-01T05:09:39.144Z,46.73
2018-10-01T05:10:17.148Z,48.70
2018-10-01T05:10:55.137Z,47.33
2018-10-01T05:11:32.981Z,46.67
2018-10-01T05:12:11.645Z,48.27
2018-10-01T05:12:49.532Z,49.90
2018-10-01T05:13:27.622Z,47.07
2018-10-01T05:14:05.671Z,49.20
2018-10-01T05:14:43.887Z,49.13
2018-10-01T05:15:21.807Z,47.63
2018-10-01T05:15:59.672Z,47.07
2018-10-01T05:16:37.485Z,51.60
2018-10-01T05:17:15.324Z,52.23
2018-10-01T05:17:53.255Z,49.13
2018-10-01T05:18:31.514Z,48.40
2018-10-01T05:19:13.928Z,48.93
2018-10-01T05:19:51.800Z,52.63
2018-10-01T05:20:29.795Z,51.73
2018-10-01T05:21:07.968Z,46.20
2018-10-01T05:21:46.178Z,49.97
2018-10-01T05:22:24.584Z,47.47
2018-10-01T05:23:02.602Z,47.60
2018-10-01T05:23:40.455Z,45.23
2018-10-01T05:24:18.431Z,46.67
2018-10-01T05:24:56.490Z,55.70
2018-10-01T05:25:34.507Z,47.40
2018-10-01T05:26:13.495Z,48.40
2018-10-01T05:26:51.999Z,48.23
2018-10-01T05:27:29.910Z,48.53
2018-10-01T05:28:08.272Z,53.43
2018-10-01T05:28:46.236Z,48.67
2018-10-01T05:29:24.335Z,47.13
2018-10-01T05:30:02.221Z,52.67
2018-10-01T05:30:40.025Z,48.60
2018-10-01T05:31:18.027Z,48.70
2018-10-01T05:31:56.074Z,48.37
2018-10-01T05:32:34.112Z,50.88
2018-10-01T05:33:12.119Z,48.60
2018-10-01T05:33:50.299Z,50.43
2018-10-01T05:34:28.179Z,48.80
2018-10-01T05:35:06.197Z,47.17
2018-10-01T05:35:44.163Z,48.80
2018-10-01T05:36:22.079Z,47.30
2018-10-01T05:37:03.034Z,49.53
2018-10-01T05:37:41.203Z,47.77
2018-10-01T05:38:19.274Z,49.00
2018-10-01T05:38:57.460Z,48.37
2018-10-01T05:39:35.379Z,49.70
2018-10-01T05:40:13.288Z,47.97
2018-10-01T05:40:51.264Z,50.07
2018-10-01T05:41:29.219Z,48.60
2018-10-01T05:42:07.208Z,52.03
2018-10-01T05:42:45.216Z,49.53
2018-10-01T05:43:23.109Z,48.73
2018-10-01T05:44:01.048Z,48.90
2018-10-01T05:44:39.104Z,45.57
2018-10-01T05:45:17.056Z,48.27
2018-10-01T05:45:54.901Z,54.37
2018-10-01T05:46:32.872Z,51.03
2018-10-01T05:47:10.839Z,49.80
2018-10-01T05:47:48.669Z,55.55
2018-10-01T05:48:26.526Z,52.70
2018-10-01T05:49:04.527Z,49.67
2018-10-01T05:49:42.579Z,52.97
2018-10-01T05:50:20.427Z,52.07
2018-10-01T05:50:58.331Z,48.40
2018-10-01T05:51:36.360Z,49.80
2018-10-01T05:52:14.454Z,54.10
2018-10-01T05:52:52.847Z,48.93
2018-10-01T05:53:30.677Z,55.27
2018-10-01T05:54:08.759Z,50.67
2018-10-01T05:54:46.629Z,50.73
2018-10-01T05:55:24.462Z,51.00
2018-10-01T05:56:02.323Z,51.60
2018-10-01T05:56:40.292Z,49.70
2018-10-01T05:57:18.708Z,56.73
2018-10-01T05:57:56.865Z,54.70
2018-10-01T05:58:35.298Z,52.80
2018-10-01T05:59:13.387Z,51.70
2018-10-01T05:59:51.393Z,49.80
2018-10-01T06:00:29.550Z,50.57
2018-10-01T06:01:07.365Z,51.30
2018-10-01T06:01:45.564Z,54.60
2018-10-01T06:02:23.712Z,52.30
2018-10-01T06:03:01.636Z,56.43
2018-10-01T06:03:40.773Z,50.43
2018-10-01T06:04:18.723Z,51.77
2018-10-01T06:04:56.682Z,52.77
2018-10-01T06:05:34.733Z,54.63
2018-10-01T06:06:12.637Z,50.53
2018-10-01T06:06:50.739Z,54.70
2018-10-01T06:07:28.707Z,51.57
2018-10-01T06:08:06.697Z,51.40
2018-10-01T06:08:45.003Z,53.10
2018-10-01T06:09:22.967Z,55.90
2018-10-01T06:10:00.803Z,51.93
2018-10-01T06:10:38.788Z,52.73
2018-10-01T06:11:16.804Z,52.73
2018-10-01T06:11:56.584Z,57.23
2018-10-01T06:12:34.695Z,61.97
2018-10-01T06:13:12.657Z,56.67
2018-10-01T06:13:51.434Z,56.90
2018-10-01T06:14:29.324Z,56.20
2018-10-01T06:15:07.208Z,53.33
2018-10-01T06:15:46.612Z,59.23
2018-10-01T06:16:24.533Z,55.90
2018-10-01T06:17:02.717Z,54.67
2018-10-01T06:17:41.774Z,56.73
2018-10-01T06:18:20.552Z,54.63
2018-10-01T06:18:59.342Z,58.30
2018-10-01T06:19:37.318Z,56.70
2018-10-01T06:20:15.238Z,57.33
2018-10-01T06:20:53.271Z,56.70
2018-10-01T06:21:32.492Z,53.70
2018-10-01T06:22:10.459Z,61.30
2018-10-01T06:22:48.376Z,53.97
2018-10-01T06:23:26.313Z,59.77
2018-10-01T06:24:04.168Z,56.33
2018-10-01T06:24:42.210Z,58.07
2018-10-01T06:25:20.429Z,56.43
2018-10-01T06:25:58.491Z,59.07
2018-10-01T06:26:37.341Z,54.43
2018-10-01T06:27:15.223Z,56.90
2018-10-01T06:27:53.109Z,57.33
2018-10-01T06:28:31.119Z,58.05
2018-10-01T06:29:09.888Z,56.50
2018-10-01T06:29:47.910Z,55.37
2018-10-01T06:30:25.847Z,59.00
2018-10-01T06:31:04.589Z,57.97
2018-10-01T06:31:42.392Z,57.40
2018-10-01T06:32:20.273Z,56.67
2018-10-01T06:32:58.183Z,60.50
2018-10-01T06:33:36.155Z,55.20
2018-10-01T06:34:14.156Z,60.70
2018-10-01T06:34:52.339Z,57.87
2018-10-01T06:35:30.232Z,57.50
2018-10-01T06:36:08.452Z,57.97
2018-10-01T06:36:46.313Z,55.33
2018-10-01T06:37:25.324Z,58.00
2018-10-01T06:38:04.255Z,57.97
2018-10-01T06:38:42.180Z,58.73
2018-10-01T06:39:21.137Z,57.17
2018-10-01T06:40:00.041Z,56.73
2018-10-01T06:40:38.116Z,59.00
2018-10-01T06:41:15.952Z,60.83
2018-10-01T06:41:53.945Z,57.53
2018-10-01T06:42:31.939Z,57.00
2018-10-01T06:43:12.922Z,59.50
2018-10-01T06:43:51.068Z,60.07
2018-10-01T06:44:29.248Z,60.23
2018-10-01T06:45:07.152Z,61.30
2018-10-01T06:45:45.406Z,59.10
2018-10-01T06:46:23.303Z,61.03
2018-10-01T06:47:01.228Z,63.23
2018-10-01T06:47:39.095Z,59.07
2018-10-01T06:48:17.173Z,61.40
2018-10-01T06:48:55.203Z,61.63
2018-10-01T06:49:33.363Z,58.70
2018-10-01T06:50:11.313Z,61.83
2018-10-01T06:50:49.538Z,62.07
2018-10-01T06:51:27.594Z,61.87
2018-10-01T06:52:05.708Z,60.93
2018-10-01T06:52:43.905Z,60.70
2018-10-01T06:53:21.852Z,56.40
2018-10-01T06:53:59.841Z,57.57
2018-10-01T06:54:37.756Z,62.80
2018-10-01T06:55:16.775Z,59.10
2018-10-01T06:55:54.843Z,61.57
2018-10-01T06:56:32.804Z,58.53
2018-10-01T06:57:12.369Z,63.87
2018-10-01T06:57:50.444Z,61.07
2018-10-01T06:58:28.270Z,58.40
2018-10-01T06:59:08.007Z,59.47
2018-10-01T06:59:45.884Z,60.67
2018-10-01T07:00:23.828Z,59.57
2018-10-01T07:01:01.822Z,60.73
2018-10-01T07:01:40.803Z,60.43
2018-10-01T07:02:18.940Z,60.23
2018-10-01T07:02:57.134Z,60.23
2018-10-01T07:03:34.930Z,60.40
2018-10-01T07:04:12.810Z,60.77
2018-10-01T07:04:50.954Z,60.17
2018-10-01T07:05:29.581Z,60.83
2018-10-01T07:06:07.628Z,62.60
2018-10-01T07:06:45.599Z,60.67
2018-10-01T07:07:23.480Z,59.40
2018-10-01T07:08:01.368Z,56.40
2018-10-01T07:08:40.090Z,64.60
2018-10-01T07:09:18.101Z,60.33
2018-10-01T07:09:56.201Z,59.57
2018-10-01T07:10:34.121Z,63.67
2018-10-01T07:11:12.096Z,56.50
2018-10-01T07:11:50.204Z,55.70
2018-10-01T07:12:28.020Z,58.37
2018-10-01T07:13:06.292Z,62.00
2018-10-01T07:13:44.115Z,59.10
2018-10-01T07:14:22.143Z,59.23
2018-10-01T07:15:00.248Z,60.73
2018-10-01T07:15:38.251Z,61.03
2018-10-01T07:16:17.004Z,61.08
2018-10-01T07:16:54.933Z,59.03
2018-10-01T07:17:33.057Z,63.00
2018-10-01T07:18:10.964Z,60.10
2018-10-01T07:18:50.484Z,57.90
2018-10-01T07:19:28.451Z,58.97
2018-10-01T07:20:06.275Z,59.43
2018-10-01T07:20:44.217Z,62.57
2018-10-01T07:21:22.124Z,59.77
2018-10-01T07:22:00.176Z,62.60
2018-10-01T07:22:38.281Z,62.50
2018-10-01T07:23:16.460Z,63.70
2018-10-01T07:23:54.557Z,60.83
2018-10-01T07:24:32.505Z,63.93
2018-10-01T07:25:10.429Z,64.77
2018-10-01T07:25:48.456Z,60.60
2018-10-01T07:26:27.226Z,59.20
2018-10-01T07:27:05.185Z,60.10
2018-10-01T07:27:43.290Z,59.13
2018-10-01T07:28:22.347Z,64.23
2018-10-01T07:29:01.434Z,60.80
2018-10-01T07:29:39.731Z,59.80
2018-10-01T07:30:17.545Z,59.60
2018-10-01T07:30:55.607Z,64.07
2018-10-01T07:31:33.468Z,66.80
2018-10-01T07:32:11.420Z,59.87
2018-10-01T07:32:49.233Z,59.43
2018-10-01T07:33:27.432Z,62.67
2018-10-01T07:34:05.492Z,63.20
2018-10-01T07:34:43.527Z,64.00
2018-10-01T07:35:21.424Z,59.57
2018-10-01T07:36:00.309Z,64.93
2018-10-01T07:36:38.814Z,62.53
2018-10-01T07:37:16.623Z,64.53
2018-10-01T07:37:54.856Z,69.83
2018-10-01T07:38:32.734Z,63.20
2018-10-01T07:39:11.732Z,63.73
2018-10-01T07:39:50.896Z,64.40
2018-10-01T07:40:29.991Z,64.27
2018-10-01T07:41:08.040Z,61.08
2018-10-01T07:41:46.157Z,64.53
2018-10-01T07:42:24.092Z,59.60
2018-10-01T07:43:02.074Z,63.17
2018-10-01T07:43:40.990Z,60.67
2018-10-01T07:44:18.971Z,65.07
2018-10-01T07:44:56.862Z,61.63
2018-10-01T07:45:34.879Z,66.33
2018-10-01T07:46:12.851Z,59.57
2018-10-01T07:46:50.846Z,61.93
2018-10-01T07:47:28.807Z,61.03
2018-10-01T07:48:06.683Z,61.33
2018-10-01T07:48:44.625Z,67.03
2018-10-01T07:49:22.542Z,65.93
2018-10-01T07:50:00.496Z,61.70
2018-10-01T07:50:38.464Z,61.30
2018-10-01T07:51:16.441Z,61.40
2018-10-01T07:51:54.687Z,64.20
2018-10-01T07:52:32.556Z,65.73
2018-10-01T07:53:11.241Z,64.40
2018-10-01T07:53:49.258Z,60.90
2018-10-01T07:54:29.399Z,59.83
2018-10-01T07:55:07.543Z,61.80
2018-10-01T07:55:46.248Z,61.40
2018-10-01T07:56:24.136Z,60.70
2018-10-01T07:57:02.126Z,62.23
2018-10-01T07:57:40.085Z,61.50
2018-10-01T07:58:18.161Z,62.70
2018-10-01T07:58:56.053Z,60.00
2018-10-01T07:59:34.296Z,60.93
2018-10-01T08:00:12.429Z,63.40
2018-10-01T08:00:50.479Z,64.00
2018-10-01T08:01:28.427Z,60.30
2018-10-01T08:02:06.418Z,60.67
2018-10-01T08:02:44.438Z,61.10
2018-10-01T08:03:22.386Z,60.77
2018-10-01T08:04:00.441Z,61.03
2018-10-01T08:04:38.471Z,63.30
2018-10-01T08:05:17.298Z,61.53
2018-10-01T08:05:55.185Z,58.60
2018-10-01T08:06:33.045Z,61.87
2018-10-01T08:07:11.952Z,60.93
2018-10-01T08:07:49.925Z,64.80
2018-10-01T08:08:27.989Z,60.43
2018-10-01T08:09:06.642Z,62.60
2018-10-01T08:09:44.586Z,59.50
2018-10-01T08:10:22.421Z,60.53
2018-10-01T08:11:00.472Z,60.50
2018-10-01T08:11:39.668Z,61.10
2018-10-01T08:12:17.875Z,62.07
2018-10-01T08:12:56.377Z,62.93
2018-10-01T08:13:34.386Z,61.13
2018-10-01T08:14:12.541Z,67.67
2018-10-01T08:14:51.207Z,62.03
2018-10-01T08:15:30.462Z,62.47
2018-10-01T08:16:09.918Z,63.07
2018-10-01T08:16:48.002Z,60.30
2018-10-01T08:17:26.427Z,65.47
2018-10-01T08:18:04.433Z,63.00
2018-10-01T08:18:43.872Z,60.13
2018-10-01T08:19:21.845Z,62.83